createdAt,value
2019-05-29T00:01:21.986Z,21.34
2019-05-29T00:03:50.456Z,21.14
2019-05-29T00:06:18.931Z,20.79
2019-05-29T00:08:47.602Z,20.57
2019-05-29T00:11:16.215Z,20.48
2019-05-29T00:13:44.722Z,20.25
2019-05-29T00:16:14.418Z,20.44
2019-05-29T00:18:43.022Z,20.64
2019-05-29T00:21:12.987Z,20.63
2019-05-29T00:23:41.524Z,20.45
2019-05-29T00:26:10.420Z,20.56
2019-05-29T00:28:39.119Z,20.46
2019-05-29T00:31:07.803Z,20.70
2019-05-29T00:33:36.465Z,20.66
2019-05-29T00:36:06.091Z,20.47
2019-05-29T00:38:34.767Z,20.51
2019-05-29T00:41:03.284Z,20.58
2019-05-29T00:43:31.868Z,20.56
2019-05-29T00:46:00.290Z,20.55
2019-05-29T00:48:28.769Z,20.53
2019-05-29T00:50:57.261Z,20.39
2019-05-29T00:53:25.762Z,20.39
2019-05-29T00:55:54.370Z,20.44
2019-05-29T00:58:22.976Z,20.43
2019-05-29T01:00:51.587Z,20.21
2019-05-29T01:03:20.099Z,20.38
2019-05-29T01:05:48.596Z,20.49
2019-05-29T01:08:17.084Z,20.50
2019-05-29T01:10:45.975Z,20.27
2019-05-29T01:13:15.149Z,20.22
2019-05-29T01:15:43.845Z,20.39
2019-05-29T01:18:12.235Z,20.42
2019-05-29T01:20:40.722Z,20.24
2019-05-29T01:23:09.308Z,20.03
2019-05-29T01:25:37.811Z,19.97
2019-05-29T01:28:06.482Z,20.08
2019-05-29T01:30:35.084Z,20.20
2019-05-29T01:33:03.581Z,20.34
2019-05-29T01:35:32.173Z,20.36
2019-05-29T01:38:00.786Z,19.89
2019-05-29T01:40:29.772Z,20.00
2019-05-29T01:42:58.567Z,19.85
2019-05-29T01:45:27.724Z,19.71
2019-05-29T01:47:56.460Z,19.63
2019-05-29T01:50:25.034Z,19.79
2019-05-29T01:52:53.579Z,19.94
2019-05-29T01:55:22.063Z,19.95
2019-05-29T01:57:50.650Z,20.14
2019-05-29T02:00:21.870Z,19.90
2019-05-29T02:02:50.612Z,19.92
2019-05-29T02:05:19.983Z,20.42
2019-05-29T02:07:48.697Z,20.08
2019-05-29T02:10:18.272Z,19.93
2019-05-29T02:12:47.347Z,19.97
2019-05-29T02:15:27.018Z,19.47
2019-05-29T02:17:46.720Z,19.98
2019-05-29T02:20:16.867Z,19.64
2019-05-29T02:22:45.504Z,19.44
2019-05-29T02:25:16.431Z,19.49
2019-05-29T02:27:44.990Z,19.42
2019-05-29T02:30:14.100Z,19.42
2019-05-29T02:32:42.592Z,19.39
2019-05-29T02:35:11.206Z,19.22
2019-05-29T02:37:39.919Z,19.29
2019-05-29T02:40:08.887Z,19.50
2019-05-29T02:42:37.394Z,19.38
2019-05-29T02:45:06.162Z,19.99
2019-05-29T02:47:34.767Z,19.20
2019-05-29T02:50:03.992Z,19.23
2019-05-29T02:52:32.674Z,18.97
2019-05-29T02:55:01.170Z,19.20
2019-05-29T02:57:30.958Z,18.96
2019-05-29T02:59:59.654Z,18.76
2019-05-29T03:02:30.016Z,18.78
2019-05-29T03:04:58.503Z,18.84
2019-05-29T03:07:28.513Z,19.15
2019-05-29T03:09:57.171Z,19.15
2019-05-29T03:12:27.095Z,19.03
2019-05-29T03:14:55.859Z,18.66
2019-05-29T03:17:25.683Z,18.69
2019-05-29T03:19:54.249Z,18.74
2019-05-29T03:22:24.099Z,18.50
2019-05-29T03:24:52.654Z,18.67
2019-05-29T03:27:21.187Z,18.65
2019-05-29T03:29:49.883Z,18.31
2019-05-29T03:32:18.484Z,18.69
2019-05-29T03:34:47.833Z,18.54
2019-05-29T03:37:16.989Z,18.51
2019-05-29T03:39:45.485Z,18.84
2019-05-29T03:42:13.994Z,18.69
2019-05-29T03:44:42.613Z,18.42
2019-05-29T03:47:11.407Z,18.35
2019-05-29T03:49:39.886Z,18.27
2019-05-29T03:52:08.295Z,18.29
2019-05-29T03:54:38.589Z,18.41
2019-05-29T03:57:07.297Z,18.21
2019-05-29T03:59:37.349Z,18.34
2019-05-29T04:02:06.102Z,18.42
2019-05-29T04:04:36.204Z,18.48
2019-05-29T04:07:05.193Z,18.61
2019-05-29T04:09:35.276Z,18.56
2019-05-29T04:12:04.121Z,18.81
2019-05-29T04:14:33.491Z,18.57
2019-05-29T04:17:02.853Z,18.36
2019-05-29T04:19:34.307Z,18.43
2019-05-29T04:22:09.538Z,18.51
2019-05-29T04:24:39.849Z,18.53
2019-05-29T04:27:11.056Z,18.52
2019-05-29T04:29:40.475Z,18.66
2019-05-29T04:32:09.311Z,18.73
2019-05-29T04:34:39.819Z,18.86
2019-05-29T04:37:08.311Z,19.01
2019-05-29T04:39:37.060Z,19.06
2019-05-29T04:42:07.140Z,19.25
2019-05-29T04:44:36.353Z,19.51
2019-05-29T04:47:10.871Z,19.47
2019-05-29T04:49:37.863Z,19.38
2019-05-29T04:52:07.069Z,19.54
2019-05-29T04:54:37.425Z,19.15
2019-05-29T04:57:06.046Z,19.49
2019-05-29T04:59:34.996Z,19.79
2019-05-29T05:02:03.796Z,19.79
2019-05-29T05:04:33.195Z,19.80
2019-05-29T05:07:01.809Z,20.00
2019-05-29T05:09:31.233Z,19.83
2019-05-29T05:11:59.840Z,19.93
2019-05-29T05:14:29.546Z,19.98
2019-05-29T05:16:58.393Z,20.35
2019-05-29T05:19:26.891Z,20.35
2019-05-29T05:21:55.499Z,20.02
2019-05-29T05:24:24.181Z,20.14
2019-05-29T05:26:52.780Z,20.14
2019-05-29T05:29:21.375Z,20.50
2019-05-29T05:31:49.884Z,20.86
2019-05-29T05:34:18.483Z,21.08
2019-05-29T05:36:47.046Z,21.10
2019-05-29T05:39:15.542Z,21.05
2019-05-29T05:41:44.043Z,21.36
2019-05-29T05:44:12.670Z,21.56
2019-05-29T05:46:41.332Z,21.56
2019-05-29T05:49:09.909Z,21.67
2019-05-29T05:51:42.688Z,21.79
2019-05-29T05:54:08.833Z,21.83
2019-05-29T05:56:37.770Z,21.92
2019-05-29T05:59:06.453Z,21.80
2019-05-29T06:01:35.901Z,21.99
2019-05-29T06:04:04.586Z,22.14
2019-05-29T06:06:33.947Z,22.11
2019-05-29T06:09:04.038Z,22.11
2019-05-29T06:11:32.645Z,22.36
2019-05-29T06:14:01.149Z,22.34
2019-05-29T06:16:29.649Z,22.33
2019-05-29T06:18:58.214Z,22.27
2019-05-29T06:21:26.700Z,22.56
2019-05-29T06:23:55.316Z,22.60
2019-05-29T06:26:23.849Z,22.80
2019-05-29T06:28:52.458Z,22.87
2019-05-29T06:31:21.084Z,22.90
2019-05-29T06:33:49.581Z,22.99
2019-05-29T06:36:18.186Z,23.03
2019-05-29T06:38:46.776Z,23.11
2019-05-29T06:41:15.372Z,23.22
2019-05-29T06:43:44.533Z,23.16
2019-05-29T06:46:13.280Z,23.19
2019-05-29T06:48:53.496Z,23.18
2019-05-29T06:51:12.247Z,23.28
2019-05-29T06:53:41.749Z,23.35
2019-05-29T06:56:10.439Z,23.52
2019-05-29T06:58:40.052Z,23.76
2019-05-29T07:01:08.976Z,23.85
2019-05-29T07:03:37.672Z,23.90
2019-05-29T07:06:06.298Z,23.95
2019-05-29T07:08:40.136Z,24.06
2019-05-29T07:11:05.259Z,24.12
2019-05-29T07:13:35.193Z,24.06
2019-05-29T07:16:04.468Z,24.10
2019-05-29T07:18:32.981Z,24.18
2019-05-29T07:21:01.588Z,24.14
2019-05-29T07:23:30.199Z,24.21
2019-05-29T07:25:58.720Z,24.34
2019-05-29T07:28:27.316Z,24.40
2019-05-29T07:31:01.856Z,24.44
2019-05-29T07:33:26.225Z,24.51
2019-05-29T07:35:54.709Z,24.58
2019-05-29T07:38:23.327Z,24.37
2019-05-29T07:40:51.913Z,24.33
2019-05-29T07:43:20.413Z,24.40
2019-05-29T07:45:49.408Z,24.40
2019-05-29T07:48:17.929Z,24.31
2019-05-29T07:50:46.399Z,24.31
2019-05-29T07:53:14.988Z,24.35
2019-05-29T07:55:44.608Z,24.53
2019-05-29T07:58:13.500Z,24.59
2019-05-29T08:01:06.907Z,24.67
2019-05-29T08:03:12.711Z,24.76
2019-05-29T08:05:44.954Z,24.89
2019-05-29T08:08:11.817Z,24.98
2019-05-29T08:10:41.687Z,25.06
2019-05-29T08:13:10.440Z,25.05
2019-05-29T08:15:55.272Z,25.14
2019-05-29T08:18:09.222Z,25.19
2019-05-29T08:20:37.825Z,25.15
2019-05-29T08:23:06.310Z,25.09
2019-05-29T08:25:34.896Z,25.30
2019-05-29T08:28:03.646Z,25.32
2019-05-29T08:30:32.123Z,25.37
2019-05-29T08:33:00.614Z,25.46
2019-05-29T08:35:29.329Z,25.46
2019-05-29T08:37:57.832Z,25.49
2019-05-29T08:40:26.215Z,25.48
2019-05-29T08:42:54.702Z,25.62
2019-05-29T08:45:23.204Z,25.59
2019-05-29T08:47:51.987Z,25.60
2019-05-29T08:50:20.828Z,25.71
2019-05-29T08:52:50.113Z,25.68
2019-05-29T08:55:18.936Z,25.59
2019-05-29T08:57:48.405Z,25.59
2019-05-29T09:00:18.605Z,25.86
2019-05-29T09:02:48.908Z,25.89
2019-05-29T09:05:17.745Z,25.97
2019-05-29T09:07:47.832Z,26.00
2019-05-29T09:10:18.460Z,26.19
2019-05-29T09:12:56.723Z,26.35
2019-05-29T09:15:21.038Z,26.52
2019-05-29T09:17:49.099Z,26.57
2019-05-29T09:20:34.088Z,26.58
2019-05-29T09:22:48.134Z,26.71
2019-05-29T09:25:17.056Z,26.94
2019-05-29T09:27:46.015Z,27.02
2019-05-29T09:30:16.495Z,27.02
2019-05-29T09:32:51.544Z,26.85
2019-05-29T09:35:17.889Z,26.90
2019-05-29T09:37:46.596Z,26.79
2019-05-29T09:40:19.065Z,26.77
2019-05-29T09:42:47.782Z,26.74
2019-05-29T09:45:17.814Z,26.82
2019-05-29T09:47:46.617Z,27.12
2019-05-29T09:50:17.342Z,27.09
2019-05-29T09:52:46.604Z,27.07
2019-05-29T09:55:15.805Z,27.12
2019-05-29T09:57:44.413Z,27.09
2019-05-29T10:00:14.142Z,27.18
2019-05-29T10:02:42.634Z,27.10
2019-05-29T10:05:12.117Z,27.46
2019-05-29T10:07:40.625Z,27.43
2019-05-29T10:10:11.349Z,27.37
2019-05-29T10:12:40.007Z,27.74
2019-05-29T10:15:09.854Z,27.44
2019-05-29T10:17:38.362Z,27.59
2019-05-29T10:20:07.898Z,27.82
2019-05-29T10:22:36.753Z,27.82
2019-05-29T10:25:06.086Z,27.79
2019-05-29T10:27:34.625Z,27.73
2019-05-29T10:30:03.779Z,27.96
2019-05-29T10:32:32.387Z,28.10
2019-05-29T10:35:00.987Z,28.06
2019-05-29T10:37:29.495Z,27.95
2019-05-29T10:39:57.954Z,27.83
2019-05-29T10:42:26.461Z,28.02
2019-05-29T10:45:13.541Z,28.15
2019-05-29T10:47:43.298Z,28.00
2019-05-29T10:50:13.076Z,27.93
2019-05-29T10:52:41.642Z,27.90
2019-05-29T10:55:12.247Z,27.99
2019-05-29T10:57:40.836Z,27.88
2019-05-29T11:00:09.828Z,28.02
2019-05-29T11:02:38.324Z,27.97
2019-05-29T11:05:07.319Z,28.06
2019-05-29T11:07:35.836Z,27.90
2019-05-29T11:10:05.481Z,28.07
2019-05-29T11:12:33.970Z,27.90
2019-05-29T11:15:20.360Z,27.83
2019-05-29T11:17:33.991Z,28.01
2019-05-29T11:20:02.761Z,28.21
2019-05-29T11:22:31.444Z,28.21
2019-05-29T11:25:20.693Z,28.19
2019-05-29T11:27:30.443Z,28.19
2019-05-29T11:29:59.227Z,28.32
2019-05-29T11:32:27.714Z,28.08
2019-05-29T11:34:57.529Z,28.08
2019-05-29T11:37:30.068Z,28.17
2019-05-29T11:39:59.840Z,28.17
2019-05-29T11:42:31.218Z,28.29
2019-05-29T11:45:00.894Z,28.12
2019-05-29T11:47:29.487Z,28.01
2019-05-29T11:50:03.298Z,28.07
2019-05-29T11:52:41.762Z,28.07
2019-05-29T11:55:00.096Z,28.27
2019-05-29T11:57:29.389Z,28.24
2019-05-29T12:00:01.639Z,28.31
2019-05-29T12:02:28.355Z,28.32
2019-05-29T12:04:57.490Z,28.21
2019-05-29T12:07:27.333Z,28.33
2019-05-29T12:09:55.826Z,28.43
2019-05-29T12:12:24.416Z,28.43
2019-05-29T12:15:07.315Z,28.62
2019-05-29T12:17:23.631Z,28.60
2019-05-29T12:19:52.239Z,28.56
2019-05-29T12:22:20.744Z,28.23
2019-05-29T12:24:49.252Z,28.23
2019-05-29T12:27:17.894Z,28.28
2019-05-29T12:29:46.445Z,28.35
2019-05-29T12:32:15.203Z,28.38
2019-05-29T12:34:53.172Z,28.38
2019-05-29T12:37:14.377Z,28.50
2019-05-29T12:39:43.083Z,28.41
2019-05-29T12:42:11.804Z,28.43
2019-05-29T12:44:40.291Z,28.43
2019-05-29T12:47:08.967Z,28.58
2019-05-29T12:49:38.335Z,28.66
2019-05-29T12:52:08.631Z,28.66
2019-05-29T12:54:37.642Z,28.59
2019-05-29T12:57:06.188Z,28.52
2019-05-29T12:59:36.992Z,28.50
2019-05-29T13:02:06.799Z,28.52
2019-05-29T13:05:05.029Z,28.71
2019-05-29T13:07:06.374Z,28.71
2019-05-29T13:09:35.081Z,28.63
2019-05-29T13:12:04.811Z,28.63
2019-05-29T13:14:33.477Z,28.63
2019-05-29T13:17:03.064Z,28.66
2019-05-29T13:19:32.202Z,28.66
2019-05-29T13:22:01.610Z,28.71
2019-05-29T13:24:30.674Z,28.63
2019-05-29T13:26:59.746Z,28.51
2019-05-29T13:29:28.320Z,28.61
2019-05-29T13:31:58.021Z,28.63
2019-05-29T13:34:27.535Z,28.57
2019-05-29T13:37:02.833Z,28.57
2019-05-29T13:39:29.858Z,28.61
2019-05-29T13:42:00.763Z,28.61
2019-05-29T13:44:28.252Z,28.65
2019-05-29T13:46:57.786Z,28.65
2019-05-29T13:49:26.418Z,28.39
2019-05-29T13:51:55.040Z,28.43
2019-05-29T13:54:23.633Z,28.43
2019-05-29T13:56:52.393Z,28.25
2019-05-29T13:59:21.280Z,28.40
2019-05-29T14:01:50.612Z,28.57
2019-05-29T14:04:19.516Z,28.36
2019-05-29T14:06:48.228Z,28.40
2019-05-29T14:09:17.031Z,28.54
2019-05-29T14:11:45.802Z,28.49
2019-05-29T14:14:14.411Z,28.54
2019-05-29T14:16:43.071Z,28.29
2019-05-29T14:19:13.421Z,28.24
2019-05-29T14:21:42.577Z,28.11
2019-05-29T14:24:26.244Z,28.11
2019-05-29T14:26:41.736Z,28.30
2019-05-29T14:29:11.743Z,28.17
2019-05-29T14:31:40.743Z,28.17
2019-05-29T14:34:09.889Z,28.11
2019-05-29T14:36:38.380Z,28.16
2019-05-29T14:39:07.683Z,28.05
2019-05-29T14:41:36.678Z,28.12
2019-05-29T14:44:05.774Z,28.08
2019-05-29T14:46:34.477Z,28.08
2019-05-29T14:49:04.324Z,28.02
2019-05-29T14:51:33.213Z,27.87
2019-05-29T14:54:02.786Z,28.15
2019-05-29T14:56:31.703Z,27.97
2019-05-29T14:59:00.590Z,28.12
2019-05-29T15:01:29.094Z,27.96
2019-05-29T15:03:57.598Z,27.96
2019-05-29T15:06:26.191Z,27.90
2019-05-29T15:08:55.284Z,27.93
2019-05-29T15:11:23.787Z,28.01
2019-05-29T15:13:52.540Z,28.01
2019-05-29T15:16:21.036Z,27.74
2019-05-29T15:18:49.642Z,27.76
2019-05-29T15:21:18.469Z,27.63
2019-05-29T15:23:47.054Z,27.79
2019-05-29T15:26:15.863Z,27.75
2019-05-29T15:28:44.554Z,27.81
2019-05-29T15:31:14.547Z,27.78
2019-05-29T15:33:43.169Z,27.77
2019-05-29T15:36:13.173Z,27.60
2019-05-29T15:38:41.861Z,27.68
2019-05-29T15:41:10.747Z,27.59
2019-05-29T15:43:39.461Z,27.65
2019-05-29T15:46:10.034Z,27.54
2019-05-29T15:48:39.321Z,27.62
2019-05-29T15:51:08.841Z,27.67
2019-05-29T15:53:37.579Z,27.58
2019-05-29T15:56:18.345Z,27.65
2019-05-29T15:58:36.699Z,27.66
2019-05-29T16:01:05.315Z,27.61
2019-05-29T16:03:34.217Z,27.58
2019-05-29T16:06:02.807Z,27.61
2019-05-29T16:08:31.815Z,27.61
2019-05-29T16:11:00.327Z,27.44
2019-05-29T16:13:28.909Z,27.31
2019-05-29T16:15:57.611Z,27.25
2019-05-29T16:18:29.151Z,27.04
2019-05-29T16:20:56.740Z,26.98
2019-05-29T16:23:35.181Z,27.02
2019-05-29T16:25:56.049Z,26.98
2019-05-29T16:28:24.780Z,27.10
2019-05-29T16:30:53.262Z,27.07
2019-05-29T16:33:23.306Z,27.05
2019-05-29T16:35:52.474Z,26.96
2019-05-29T16:38:21.842Z,26.92
2019-05-29T16:40:50.479Z,26.86
2019-05-29T16:43:20.136Z,26.82
2019-05-29T16:45:48.844Z,26.59
2019-05-29T16:48:18.520Z,26.60
2019-05-29T16:50:47.315Z,26.66
2019-05-29T16:53:16.766Z,26.66
2019-05-29T16:55:53.891Z,26.51
2019-05-29T16:58:17.376Z,26.57
2019-05-29T17:00:46.460Z,26.57
2019-05-29T17:03:15.626Z,26.42
2019-05-29T17:05:44.272Z,26.34
2019-05-29T17:08:14.045Z,26.35
2019-05-29T17:10:42.809Z,26.44
2019-05-29T17:13:11.512Z,26.40
2019-05-29T17:15:40.128Z,26.30
2019-05-29T17:18:08.903Z,26.22
2019-05-29T17:20:39.751Z,26.23
2019-05-29T17:23:09.067Z,26.00
2019-05-29T17:25:38.090Z,25.86
2019-05-29T17:28:06.664Z,25.87
2019-05-29T17:30:35.266Z,25.84
2019-05-29T17:33:04.445Z,25.82
2019-05-29T17:35:32.991Z,25.65
2019-05-29T17:38:02.114Z,25.56
2019-05-29T17:40:30.598Z,25.49
2019-05-29T17:42:59.293Z,25.48
2019-05-29T17:45:27.999Z,25.36
2019-05-29T17:47:56.615Z,25.35
2019-05-29T17:50:26.688Z,25.62
2019-05-29T17:52:55.377Z,25.46
2019-05-29T17:55:24.953Z,25.46
2019-05-29T17:57:54.445Z,25.22
2019-05-29T18:00:26.549Z,25.03
2019-05-29T18:02:56.159Z,24.93
2019-05-29T18:05:24.917Z,25.12
2019-05-29T18:07:53.541Z,25.08
2019-05-29T18:10:23.991Z,25.21
2019-05-29T18:12:53.105Z,24.92
2019-05-29T18:15:23.672Z,25.06
2019-05-29T18:17:52.348Z,24.97
2019-05-29T18:20:21.709Z,24.97
2019-05-29T18:22:50.413Z,24.94
2019-05-29T18:25:19.778Z,24.95
2019-05-29T18:27:48.482Z,24.81
2019-05-29T18:30:18.212Z,24.76
2019-05-29T18:32:47.058Z,24.66
2019-05-29T18:35:16.610Z,24.45
2019-05-29T18:37:45.251Z,24.61
2019-05-29T18:40:14.281Z,24.56
2019-05-29T18:42:43.592Z,24.56
2019-05-29T18:45:20.917Z,24.61
2019-05-29T18:47:43.322Z,24.31
2019-05-29T18:50:12.427Z,24.13
2019-05-29T18:52:40.960Z,24.20
2019-05-29T18:55:11.374Z,24.67
2019-05-29T18:57:40.502Z,24.27
2019-05-29T19:00:10.188Z,24.33
2019-05-29T19:02:38.735Z,24.44
2019-05-29T19:05:08.177Z,24.39
2019-05-29T19:07:36.744Z,24.37
2019-05-29T19:10:07.093Z,24.22
2019-05-29T19:12:36.375Z,24.36
2019-05-29T19:15:07.510Z,24.08
2019-05-29T19:17:36.397Z,24.09
2019-05-29T19:20:07.232Z,24.08
2019-05-29T19:22:35.921Z,24.14
2019-05-29T19:25:05.698Z,24.23
2019-05-29T19:27:41.584Z,24.00
2019-05-29T19:30:06.947Z,23.83
2019-05-29T19:32:35.522Z,24.05
2019-05-29T19:35:04.531Z,23.82
2019-05-29T19:37:34.118Z,23.91
2019-05-29T19:40:03.410Z,23.83
2019-05-29T19:42:32.347Z,23.72
2019-05-29T19:45:01.208Z,23.76
2019-05-29T19:47:30.727Z,24.09
2019-05-29T19:49:59.428Z,24.03
2019-05-29T19:52:29.073Z,23.86
2019-05-29T19:54:57.825Z,23.98
2019-05-29T19:57:28.126Z,23.93
2019-05-29T19:59:56.797Z,24.02
2019-05-29T20:02:26.493Z,23.92
2019-05-29T20:04:55.415Z,23.88
2019-05-29T20:07:23.948Z,23.85
2019-05-29T20:09:52.553Z,24.03
2019-05-29T20:12:21.168Z,23.64
2019-05-29T20:14:49.789Z,23.86
2019-05-29T20:17:19.005Z,23.69
2019-05-29T20:19:48.008Z,23.57
2019-05-29T20:22:16.740Z,23.72
2019-05-29T20:24:45.323Z,23.46
2019-05-29T20:27:14.265Z,23.46
2019-05-29T20:29:42.894Z,23.48
2019-05-29T20:32:11.681Z,23.51
2019-05-29T20:34:40.289Z,23.53
2019-05-29T20:37:09.151Z,23.56
2019-05-29T20:39:38.480Z,23.79
2019-05-29T20:42:07.273Z,23.64
2019-05-29T20:44:36.674Z,23.66
2019-05-29T20:47:05.364Z,23.47
2019-05-29T20:49:33.918Z,23.46
2019-05-29T20:52:02.473Z,23.43
2019-05-29T20:54:31.577Z,23.45
2019-05-29T20:57:09.833Z,23.43
2019-05-29T20:59:39.979Z,23.42
2019-05-29T21:02:08.619Z,23.34
2019-05-29T21:04:38.452Z,23.64
2019-05-29T21:07:07.131Z,23.60
2019-05-29T21:09:36.883Z,23.24
2019-05-29T21:12:05.333Z,23.29
2019-05-29T21:14:33.794Z,23.25
2019-05-29T21:17:02.772Z,23.13
2019-05-29T21:19:31.398Z,23.22
2019-05-29T21:21:59.891Z,23.49
2019-05-29T21:24:28.485Z,23.27
2019-05-29T21:26:57.158Z,23.25
2019-05-29T21:29:25.704Z,22.95
2019-05-29T21:31:54.198Z,23.09
2019-05-29T21:34:23.688Z,23.12
2019-05-29T21:36:52.196Z,23.10
2019-05-29T21:39:20.894Z,22.65
2019-05-29T21:41:49.635Z,22.68
2019-05-29T21:44:18.423Z,22.87
2019-05-29T21:46:48.468Z,22.87
2019-05-29T21:49:16.994Z,22.94
2019-05-29T21:51:45.793Z,22.84
2019-05-29T21:54:14.571Z,22.72
2019-05-29T21:56:43.732Z,22.84
2019-05-29T21:59:12.263Z,22.76
2019-05-29T22:01:42.055Z,22.92
2019-05-29T22:04:10.789Z,23.07
2019-05-29T22:06:40.453Z,22.82
2019-05-29T22:09:13.451Z,22.88
2019-05-29T22:11:42.056Z,23.11
2019-05-29T22:14:10.758Z,22.74
2019-05-29T22:16:39.342Z,22.58
2019-05-29T22:19:07.906Z,22.90
2019-05-29T22:21:36.559Z,22.85
2019-05-29T22:24:06.361Z,22.98
2019-05-29T22:26:34.839Z,22.79
2019-05-29T22:29:17.127Z,22.49
2019-05-29T22:31:34.134Z,22.22
2019-05-29T22:34:02.753Z,22.48
2019-05-29T22:36:31.334Z,22.38
2019-05-29T22:38:59.924Z,22.50
2019-05-29T22:41:28.621Z,22.49
2019-05-29T22:43:57.604Z,22.39
2019-05-29T22:46:26.108Z,22.43
2019-05-29T22:48:55.876Z,22.34
2019-05-29T22:51:24.804Z,22.24
2019-05-29T22:53:53.994Z,22.40
2019-05-29T22:56:22.772Z,22.40
2019-05-29T22:58:52.017Z,22.15
2019-05-29T23:01:20.756Z,22.17
2019-05-29T23:03:49.333Z,22.01
2019-05-29T23:06:17.813Z,22.23
2019-05-29T23:08:46.298Z,21.88
2019-05-29T23:11:15.035Z,21.84
2019-05-29T23:13:43.509Z,22.10
2019-05-29T23:16:12.021Z,22.15
2019-05-29T23:18:40.603Z,21.92
2019-05-29T23:21:09.246Z,21.74
2019-05-29T23:23:37.932Z,22.01
2019-05-29T23:26:06.537Z,21.87
2019-05-29T23:28:35.133Z,22.02
2019-05-29T23:31:03.719Z,21.93
2019-05-29T23:33:32.204Z,21.53
2019-05-29T23:36:01.214Z,21.60
2019-05-29T23:38:30.086Z,21.75
2019-05-29T23:40:59.502Z,21.70
2019-05-29T23:43:28.114Z,21.83
2019-05-29T23:45:57.361Z,21.86
2019-05-29T23:48:26.288Z,21.83
2019-05-29T23:50:55.513Z,22.01
2019-05-29T23:53:24.177Z,21.58
2019-05-29T23:55:54.165Z,21.61
2019-05-29T23:58:22.784Z,21.54
